sensor_id;sensor_type;location;lat;lon;timestamp;P1;durP1;ratioP1;P2;durP2;ratioP2
17714;SDS011;8977;50.902;4.314;2023-06-22T00:01:16;6.22;;;3.78;;
17714;SDS011;8977;50.902;4.314;2023-06-22T00:03:43;6.00;;;3.80;;
17714;SDS011;8977;50.902;4.314;2023-06-22T00:06:10;6.72;;;3.90;;
17714;SDS011;8977;50.902;4.314;2023-06-22T00:08:37;5.25;;;3.55;;
17714;SDS011;8977;50.902;4.314;2023-06-22T00:11:04;6.78;;;4.72;;
17714;SDS011;8977;50.902;4.314;2023-06-22T00:13:32;5.07;;;4.10;;
17714;SDS011;8977;50.902;4.314;2023-06-22T00:15:59;4.47;;;3.92;;
17714;SDS011;8977;50.902;4.314;2023-06-22T00:18:26;5.70;;;4.00;;
17714;SDS011;8977;50.902;4.314;2023-06-22T00:20:53;4.57;;;4.10;;
17714;SDS011;8977;50.902;4.314;2023-06-22T00:23:23;4.88;;;4.00;;
17714;SDS011;8977;50.902;4.314;2023-06-22T00:25:50;7.63;;;4.18;;
17714;SDS011;8977;50.902;4.314;2023-06-22T00:28:17;5.55;;;4.10;;
17714;SDS011;8977;50.902;4.314;2023-06-22T00:30:45;4.32;;;3.92;;
17714;SDS011;8977;50.902;4.314;2023-06-22T00:33:13;7.43;;;4.50;;
17714;SDS011;8977;50.902;4.314;2023-06-22T00:35:42;4.43;;;3.95;;
17714;SDS011;8977;50.902;4.314;2023-06-22T00:38:10;5.32;;;3.88;;
17714;SDS011;8977;50.902;4.314;2023-06-22T00:40:38;5.53;;;4.05;;
17714;SDS011;8977;50.902;4.314;2023-06-22T00:43:05;6.20;;;4.30;;
17714;SDS011;8977;50.902;4.314;2023-06-22T00:45:32;5.53;;;3.95;;
17714;SDS011;8977;50.902;4.314;2023-06-22T00:48:01;5.38;;;4.40;;
17714;SDS011;8977;50.902;4.314;2023-06-22T00:50:30;4.75;;;3.90;;
17714;SDS011;8977;50.902;4.314;2023-06-22T00:53:00;4.75;;;4.00;;
17714;SDS011;8977;50.902;4.314;2023-06-22T00:55:34;4.95;;;3.75;;
17714;SDS011;8977;50.902;4.314;2023-06-22T00:58:04;7.45;;;4.28;;
17714;SDS011;8977;50.902;4.314;2023-06-22T01:00:35;5.55;;;3.97;;
17714;SDS011;8977;50.902;4.314;2023-06-22T01:03:05;4.40;;;4.00;;
17714;SDS011;8977;50.902;4.314;2023-06-22T01:05:34;5.35;;;3.85;;
17714;SDS011;8977;50.902;4.314;2023-06-22T01:08:05;4.75;;;4.13;;
17714;SDS011;8977;50.902;4.314;2023-06-22T01:10:43;4.78;;;3.95;;
17714;SDS011;8977;50.902;4.314;2023-06-22T01:13:16;4.93;;;4.40;;
17714;SDS011;8977;50.902;4.314;2023-06-22T01:15:51;6.97;;;4.45;;
17714;SDS011;8977;50.902;4.314;2023-06-22T01:18:24;5.63;;;4.45;;
17714;SDS011;8977;50.902;4.314;2023-06-22T01:20:55;4.85;;;4.35;;
17714;SDS011;8977;50.902;4.314;2023-06-22T01:23:26;5.55;;;4.30;;
17714;SDS011;8977;50.902;4.314;2023-06-22T01:26:01;6.90;;;4.80;;
17714;SDS011;8977;50.902;4.314;2023-06-22T01:28:39;6.60;;;4.57;;
17714;SDS011;8977;50.902;4.314;2023-06-22T01:31:12;5.32;;;4.50;;
17714;SDS011;8977;50.902;4.314;2023-06-22T01:33:43;6.15;;;4.43;;
17714;SDS011;8977;50.902;4.314;2023-06-22T01:36:12;7.28;;;5.00;;
17714;SDS011;8977;50.902;4.314;2023-06-22T01:38:43;6.13;;;4.40;;
17714;SDS011;8977;50.902;4.314;2023-06-22T01:41:11;5.00;;;4.57;;
17714;SDS011;8977;50.902;4.314;2023-06-22T01:43:40;7.15;;;4.90;;
17714;SDS011;8977;50.902;4.314;2023-06-22T01:46:08;6.18;;;5.05;;
17714;SDS011;8977;50.902;4.314;2023-06-22T01:48:36;7.68;;;4.97;;
17714;SDS011;8977;50.902;4.314;2023-06-22T01:51:03;6.03;;;4.68;;
17714;SDS011;8977;50.902;4.314;2023-06-22T01:53:30;6.82;;;4.68;;
17714;SDS011;8977;50.902;4.314;2023-06-22T01:55:58;5.82;;;4.00;;
17714;SDS011;8977;50.902;4.314;2023-06-22T01:58:25;5.07;;;4.25;;
17714;SDS011;8977;50.902;4.314;2023-06-22T02:00:56;6.00;;;4.60;;
17714;SDS011;8977;50.902;4.314;2023-06-22T02:03:30;5.03;;;4.53;;
17714;SDS011;8977;50.902;4.314;2023-06-22T02:06:00;5.28;;;4.75;;
17714;SDS011;8977;50.902;4.314;2023-06-22T02:08:30;4.90;;;4.00;;
17714;SDS011;8977;50.902;4.314;2023-06-22T02:11:02;5.00;;;4.18;;
17714;SDS011;8977;50.902;4.314;2023-06-22T02:13:31;4.90;;;4.10;;
17714;SDS011;8977;50.902;4.314;2023-06-22T02:16:00;8.15;;;4.05;;
17714;SDS011;8977;50.902;4.314;2023-06-22T02:18:28;5.72;;;4.63;;
17714;SDS011;8977;50.902;4.314;2023-06-22T02:20:55;6.20;;;4.55;;
17714;SDS011;8977;50.902;4.314;2023-06-22T02:23:22;4.65;;;4.00;;
17714;SDS011;8977;50.902;4.314;2023-06-22T02:25:52;5.35;;;4.32;;
17714;SDS011;8977;50.902;4.314;2023-06-22T02:28:19;5.47;;;4.10;;
17714;SDS011;8977;50.902;4.314;2023-06-22T02:30:46;6.20;;;4.32;;
17714;SDS011;8977;50.902;4.314;2023-06-22T02:33:14;5.97;;;4.13;;
17714;SDS011;8977;50.902;4.314;2023-06-22T02:35:41;6.70;;;4.72;;
17714;SDS011;8977;50.902;4.314;2023-06-22T02:38:10;5.22;;;4.53;;
17714;SDS011;8977;50.902;4.314;2023-06-22T02:40:37;5.50;;;4.32;;
17714;SDS011;8977;50.902;4.314;2023-06-22T02:43:04;5.10;;;3.97;;
17714;SDS011;8977;50.902;4.314;2023-06-22T02:45:31;5.35;;;4.55;;
17714;SDS011;8977;50.902;4.314;2023-06-22T02:47:58;4.72;;;4.32;;
17714;SDS011;8977;50.902;4.314;2023-06-22T02:50:26;4.45;;;4.00;;
17714;SDS011;8977;50.902;4.314;2023-06-22T02:52:53;6.38;;;4.85;;
17714;SDS011;8977;50.902;4.314;2023-06-22T02:55:20;4.40;;;4.00;;
17714;SDS011;8977;50.902;4.314;2023-06-22T02:57:48;6.45;;;4.38;;
17714;SDS011;8977;50.902;4.314;2023-06-22T03:00:18;5.13;;;4.63;;
17714;SDS011;8977;50.902;4.314;2023-06-22T03:02:47;5.70;;;5.10;;
17714;SDS011;8977;50.902;4.314;2023-06-22T03:05:15;5.93;;;4.68;;
17714;SDS011;8977;50.902;4.314;2023-06-22T03:07:46;6.60;;;5.10;;
17714;SDS011;8977;50.902;4.314;2023-06-22T03:10:13;6.82;;;4.35;;
17714;SDS011;8977;50.902;4.314;2023-06-22T03:12:40;7.00;;;4.45;;
17714;SDS011;8977;50.902;4.314;2023-06-22T03:15:09;6.22;;;4.40;;
17714;SDS011;8977;50.902;4.314;2023-06-22T03:17:37;4.95;;;4.45;;
17714;SDS011;8977;50.902;4.314;2023-06-22T03:20:05;5.40;;;4.90;;
17714;SDS011;8977;50.902;4.314;2023-06-22T03:22:34;4.95;;;4.45;;
17714;SDS011;8977;50.902;4.314;2023-06-22T03:25:03;4.63;;;4.20;;
17714;SDS011;8977;50.902;4.314;2023-06-22T03:27:35;5.60;;;4.97;;
17714;SDS011;8977;50.902;4.314;2023-06-22T03:30:02;5.47;;;4.30;;
17714;SDS011;8977;50.902;4.314;2023-06-22T03:32:30;6.30;;;5.20;;
17714;SDS011;8977;50.902;4.314;2023-06-22T03:34:57;4.65;;;4.25;;
17714;SDS011;8977;50.902;4.314;2023-06-22T03:37:25;6.68;;;4.88;;
17714;SDS011;8977;50.902;4.314;2023-06-22T03:39:53;6.55;;;5.15;;
17714;SDS011;8977;50.902;4.314;2023-06-22T03:42:22;6.28;;;5.10;;
17714;SDS011;8977;50.902;4.314;2023-06-22T03:44:49;7.50;;;5.32;;
17714;SDS011;8977;50.902;4.314;2023-06-22T03:47:17;5.68;;;5.03;;
17714;SDS011;8977;50.902;4.314;2023-06-22T03:49:44;7.25;;;4.90;;
17714;SDS011;8977;50.902;4.314;2023-06-22T03:52:11;6.63;;;5.25;;
17714;SDS011;8977;50.902;4.314;2023-06-22T03:54:38;7.65;;;5.00;;
17714;SDS011;8977;50.902;4.314;2023-06-22T03:57:05;7.03;;;4.93;;
17714;SDS011;8977;50.902;4.314;2023-06-22T03:59:33;5.63;;;4.80;;
17714;SDS011;8977;50.902;4.314;2023-06-22T04:02:00;6.00;;;5.32;;
17714;SDS011;8977;50.902;4.314;2023-06-22T04:04:27;5.72;;;4.60;;
17714;SDS011;8977;50.902;4.314;2023-06-22T04:06:54;6.32;;;5.45;;
17714;SDS011;8977;50.902;4.314;2023-06-22T04:09:21;6.30;;;5.22;;
17714;SDS011;8977;50.902;4.314;2023-06-22T04:11:48;6.80;;;5.60;;
17714;SDS011;8977;50.902;4.314;2023-06-22T04:14:15;7.03;;;5.45;;
17714;SDS011;8977;50.902;4.314;2023-06-22T04:16:44;6.97;;;5.95;;
17714;SDS011;8977;50.902;4.314;2023-06-22T04:19:11;6.25;;;5.28;;
17714;SDS011;8977;50.902;4.314;2023-06-22T04:21:41;8.38;;;5.55;;
17714;SDS011;8977;50.902;4.314;2023-06-22T04:24:10;8.88;;;5.80;;
17714;SDS011;8977;50.902;4.314;2023-06-22T04:26:37;6.30;;;5.70;;
17714;SDS011;8977;50.902;4.314;2023-06-22T04:29:06;6.57;;;5.65;;
17714;SDS011;8977;50.902;4.314;2023-06-22T04:31:33;8.00;;;5.45;;
17714;SDS011;8977;50.902;4.314;2023-06-22T04:34:03;6.95;;;6.20;;
17714;SDS011;8977;50.902;4.314;2023-06-22T04:36:33;7.75;;;6.18;;
17714;SDS011;8977;50.902;4.314;2023-06-22T04:39:03;8.02;;;6.10;;
17714;SDS011;8977;50.902;4.314;2023-06-22T04:41:32;7.53;;;6.50;;
17714;SDS011;8977;50.902;4.314;2023-06-22T04:44:09;7.53;;;6.72;;
17714;SDS011;8977;50.902;4.314;2023-06-22T04:46:36;8.02;;;7.00;;
17714;SDS011;8977;50.902;4.314;2023-06-22T04:49:06;8.93;;;6.53;;
17714;SDS011;8977;50.902;4.314;2023-06-22T04:51:35;8.52;;;6.53;;
17714;SDS011;8977;50.902;4.314;2023-06-22T04:54:05;11.18;;;6.50;;
17714;SDS011;8977;50.902;4.314;2023-06-22T04:56:33;8.57;;;7.40;;
17714;SDS011;8977;50.902;4.314;2023-06-22T04:59:00;10.98;;;6.53;;
17714;SDS011;8977;50.902;4.314;2023-06-22T05:01:28;8.35;;;6.88;;
17714;SDS011;8977;50.902;4.314;2023-06-22T05:03:56;8.65;;;6.78;;
17714;SDS011;8977;50.902;4.314;2023-06-22T05:06:27;7.55;;;6.75;;
17714;SDS011;8977;50.902;4.314;2023-06-22T05:08:54;10.73;;;6.88;;
17714;SDS011;8977;50.902;4.314;2023-06-22T05:11:23;9.32;;;7.45;;
17714;SDS011;8977;50.902;4.314;2023-06-22T05:13:50;10.27;;;7.30;;
17714;SDS011;8977;50.902;4.314;2023-06-22T05:16:17;9.25;;;6.93;;
17714;SDS011;8977;50.902;4.314;2023-06-22T05:18:49;8.90;;;7.28;;
17714;SDS011;8977;50.902;4.314;2023-06-22T05:21:17;8.77;;;6.97;;
17714;SDS011;8977;50.902;4.314;2023-06-22T05:23:45;10.55;;;7.25;;
17714;SDS011;8977;50.902;4.314;2023-06-22T05:26:12;9.20;;;7.28;;
17714;SDS011;8977;50.902;4.314;2023-06-22T05:28:39;7.70;;;6.82;;
17714;SDS011;8977;50.902;4.314;2023-06-22T05:31:06;9.18;;;7.50;;
17714;SDS011;8977;50.902;4.314;2023-06-22T05:33:33;8.90;;;7.47;;
17714;SDS011;8977;50.902;4.314;2023-06-22T05:35:59;10.60;;;7.45;;
17714;SDS011;8977;50.902;4.314;2023-06-22T05:38:26;8.35;;;7.13;;
17714;SDS011;8977;50.902;4.314;2023-06-22T05:40:54;8.85;;;7.40;;
17714;SDS011;8977;50.902;4.314;2023-06-22T05:43:21;9.93;;;7.70;;
17714;SDS011;8977;50.902;4.314;2023-06-22T05:45:48;9.05;;;7.05;;
17714;SDS011;8977;50.902;4.314;2023-06-22T05:48:15;10.45;;;7.53;;
17714;SDS011;8977;50.902;4.314;2023-06-22T05:50:42;15.98;;;7.82;;
17714;SDS011;8977;50.902;4.314;2023-06-22T05:53:09;9.25;;;7.32;;
17714;SDS011;8977;50.902;4.314;2023-06-22T05:55:36;9.98;;;7.93;;
17714;SDS011;8977;50.902;4.314;2023-06-22T05:58:04;9.73;;;7.30;;
17714;SDS011;8977;50.902;4.314;2023-06-22T06:00:31;10.15;;;8.43;;
17714;SDS011;8977;50.902;4.314;2023-06-22T06:02:58;10.88;;;7.82;;
17714;SDS011;8977;50.902;4.314;2023-06-22T06:05:28;11.20;;;8.25;;
17714;SDS011;8977;50.902;4.314;2023-06-22T06:07:55;12.10;;;8.10;;
17714;SDS011;8977;50.902;4.314;2023-06-22T06:10:22;15.60;;;8.55;;
17714;SDS011;8977;50.902;4.314;2023-06-22T06:12:49;11.50;;;8.50;;
17714;SDS011;8977;50.902;4.314;2023-06-22T06:15:17;12.52;;;9.48;;
17714;SDS011;8977;50.902;4.314;2023-06-22T06:17:45;13.35;;;8.88;;
17714;SDS011;8977;50.902;4.314;2023-06-22T06:20:12;9.38;;;8.38;;
17714;SDS011;8977;50.902;4.314;2023-06-22T06:22:39;12.25;;;8.57;;
17714;SDS011;8977;50.902;4.314;2023-06-22T06:25:08;11.32;;;8.63;;
17714;SDS011;8977;50.902;4.314;2023-06-22T06:27:35;11.70;;;9.25;;
17714;SDS011;8977;50.902;4.314;2023-06-22T06:30:02;10.98;;;9.45;;
17714;SDS011;8977;50.902;4.314;2023-06-22T06:32:31;14.50;;;8.90;;
17714;SDS011;8977;50.902;4.314;2023-06-22T06:34:58;12.30;;;10.25;;
17714;SDS011;8977;50.902;4.314;2023-06-22T06:37:24;11.48;;;10.15;;
17714;SDS011;8977;50.902;4.314;2023-06-22T06:39:51;12.82;;;10.20;;
17714;SDS011;8977;50.902;4.314;2023-06-22T06:42:18;13.95;;;10.48;;
17714;SDS011;8977;50.902;4.314;2023-06-22T06:44:45;12.70;;;10.02;;
17714;SDS011;8977;50.902;4.314;2023-06-22T06:47:12;11.73;;;10.60;;
17714;SDS011;8977;50.902;4.314;2023-06-22T06:49:40;12.18;;;10.57;;
17714;SDS011;8977;50.902;4.314;2023-06-22T06:52:07;12.40;;;10.85;;
17714;SDS011;8977;50.902;4.314;2023-06-22T06:54:34;12.02;;;10.55;;
17714;SDS011;8977;50.902;4.314;2023-06-22T06:57:02;11.95;;;10.43;;
17714;SDS011;8977;50.902;4.314;2023-06-22T06:59:30;14.40;;;10.63;;
17714;SDS011;8977;50.902;4.314;2023-06-22T07:01:57;13.48;;;10.73;;
17714;SDS011;8977;50.902;4.314;2023-06-22T07:04:24;13.07;;;10.30;;
17714;SDS011;8977;50.902;4.314;2023-06-22T07:06:52;14.05;;;10.60;;
17714;SDS011;8977;50.902;4.314;2023-06-22T07:09:19;17.52;;;11.88;;
17714;SDS011;8977;50.902;4.314;2023-06-22T07:11:46;11.60;;;10.40;;
17714;SDS011;8977;50.902;4.314;2023-06-22T07:14:13;13.10;;;10.98;;
17714;SDS011;8977;50.902;4.314;2023-06-22T07:16:40;13.27;;;11.90;;
17714;SDS011;8977;50.902;4.314;2023-06-22T07:19:07;14.00;;;12.55;;
17714;SDS011;8977;50.902;4.314;2023-06-22T07:21:34;14.52;;;12.10;;
17714;SDS011;8977;50.902;4.314;2023-06-22T07:24:02;13.40;;;12.00;;
17714;SDS011;8977;50.902;4.314;2023-06-22T07:26:30;14.65;;;11.93;;
17714;SDS011;8977;50.902;4.314;2023-06-22T07:28:57;14.18;;;12.13;;
17714;SDS011;8977;50.902;4.314;2023-06-22T07:31:24;12.88;;;11.45;;
17714;SDS011;8977;50.902;4.314;2023-06-22T07:33:51;12.88;;;11.57;;
17714;SDS011;8977;50.902;4.314;2023-06-22T07:36:18;13.35;;;10.93;;
17714;SDS011;8977;50.902;4.314;2023-06-22T07:38:45;16.60;;;13.68;;
17714;SDS011;8977;50.902;4.314;2023-06-22T07:41:13;14.30;;;12.60;;
17714;SDS011;8977;50.902;4.314;2023-06-22T07:43:41;13.45;;;11.95;;
17714;SDS011;8977;50.902;4.314;2023-06-22T07:46:07;15.02;;;13.43;;
17714;SDS011;8977;50.902;4.314;2023-06-22T07:48:36;13.18;;;11.70;;
17714;SDS011;8977;50.902;4.314;2023-06-22T07:51:04;16.05;;;12.43;;
17714;SDS011;8977;50.902;4.314;2023-06-22T07:53:32;14.52;;;12.98;;
17714;SDS011;8977;50.902;4.314;2023-06-22T07:55:59;13.98;;;12.48;;
17714;SDS011;8977;50.902;4.314;2023-06-22T07:58:27;14.27;;;11.68;;
17714;SDS011;8977;50.902;4.314;2023-06-22T08:00:54;12.40;;;11.13;;
17714;SDS011;8977;50.902;4.314;2023-06-22T08:03:20;15.05;;;13.20;;
17714;SDS011;8977;50.902;4.314;2023-06-22T08:05:47;11.77;;;10.57;;
17714;SDS011;8977;50.902;4.314;2023-06-22T08:08:14;13.05;;;11.15;;
17714;SDS011;8977;50.902;4.314;2023-06-22T08:10:41;14.68;;;11.57;;
17714;SDS011;8977;50.902;4.314;2023-06-22T08:13:09;11.40;;;10.02;;
17714;SDS011;8977;50.902;4.314;2023-06-22T08:15:38;11.43;;;10.23;;
17714;SDS011;8977;50.902;4.314;2023-06-22T08:18:05;11.80;;;10.60;;
17714;SDS011;8977;50.902;4.314;2023-06-22T08:20:32;12.80;;;11.45;;
17714;SDS011;8977;50.902;4.314;2023-06-22T08:22:58;15.70;;;11.60;;
17714;SDS011;8977;50.902;4.314;2023-06-22T08:25:30;15.20;;;11.07;;
17714;SDS011;8977;50.902;4.314;2023-06-22T08:27:57;14.35;;;12.80;;
17714;SDS011;8977;50.902;4.314;2023-06-22T08:30:24;12.88;;;11.00;;
17714;SDS011;8977;50.902;4.314;2023-06-22T08:32:53;13.73;;;11.70;;
17714;SDS011;8977;50.902;4.314;2023-06-22T08:35:20;14.38;;;12.02;;
17714;SDS011;8977;50.902;4.314;2023-06-22T08:37:47;16.17;;;12.73;;
17714;SDS011;8977;50.902;4.314;2023-06-22T08:40:18;13.32;;;11.55;;
17714;SDS011;8977;50.902;4.314;2023-06-22T08:42:46;13.10;;;11.80;;
17714;SDS011;8977;50.902;4.314;2023-06-22T08:45:14;11.38;;;10.23;;
17714;SDS011;8977;50.902;4.314;2023-06-22T08:47:41;14.75;;;12.48;;
17714;SDS011;8977;50.902;4.314;2023-06-22T08:50:10;14.55;;;11.52;;
17714;SDS011;8977;50.902;4.314;2023-06-22T08:52:38;14.35;;;12.90;;
17714;SDS011;8977;50.902;4.314;2023-06-22T08:55:06;14.32;;;12.93;;
17714;SDS011;8977;50.902;4.314;2023-06-22T08:57:34;11.70;;;10.55;;
17714;SDS011;8977;50.902;4.314;2023-06-22T09:00:02;15.07;;;13.43;;
17714;SDS011;8977;50.902;4.314;2023-06-22T09:02:32;14.55;;;13.05;;
17714;SDS011;8977;50.902;4.314;2023-06-22T09:05:02;14.02;;;12.35;;
17714;SDS011;8977;50.902;4.314;2023-06-22T09:07:31;15.60;;;12.77;;
17714;SDS011;8977;50.902;4.314;2023-06-22T09:09:59;14.63;;;13.13;;
17714;SDS011;8977;50.902;4.314;2023-06-22T09:12:26;15.05;;;12.75;;
17714;SDS011;8977;50.902;4.314;2023-06-22T09:14:55;13.70;;;12.30;;
17714;SDS011;8977;50.902;4.314;2023-06-22T09:17:22;13.00;;;11.63;;
17714;SDS011;8977;50.902;4.314;2023-06-22T09:19:49;14.98;;;13.23;;
17714;SDS011;8977;50.902;4.314;2023-06-22T09:22:16;14.73;;;13.02;;
17714;SDS011;8977;50.902;4.314;2023-06-22T09:24:45;13.30;;;12.00;;
17714;SDS011;8977;50.902;4.314;2023-06-22T09:27:12;13.77;;;12.43;;
17714;SDS011;8977;50.902;4.314;2023-06-22T09:29:39;14.18;;;12.77;;
17714;SDS011;8977;50.902;4.314;2023-06-22T09:32:07;15.35;;;12.95;;
17714;SDS011;8977;50.902;4.314;2023-06-22T09:34:34;14.95;;;12.18;;
17714;SDS011;8977;50.902;4.314;2023-06-22T09:37:00;15.20;;;13.70;;
17714;SDS011;8977;50.902;4.314;2023-06-22T09:39:27;15.13;;;13.50;;
17714;SDS011;8977;50.902;4.314;2023-06-22T09:41:57;14.23;;;12.93;;
17714;SDS011;8977;50.902;4.314;2023-06-22T09:44:25;14.23;;;12.85;;
17714;SDS011;8977;50.902;4.314;2023-06-22T09:46:51;15.43;;;13.82;;
17714;SDS011;8977;50.902;4.314;2023-06-22T09:49:18;15.10;;;13.60;;
17714;SDS011;8977;50.902;4.314;2023-06-22T09:51:45;15.20;;;13.32;;
17714;SDS011;8977;50.902;4.314;2023-06-22T09:54:12;16.60;;;14.25;;
17714;SDS011;8977;50.902;4.314;2023-06-22T09:56:39;17.25;;;15.52;;
17714;SDS011;8977;50.902;4.314;2023-06-22T09:59:07;17.17;;;15.27;;
17714;SDS011;8977;50.902;4.314;2023-06-22T10:01:34;17.30;;;15.55;;
17714;SDS011;8977;50.902;4.314;2023-06-22T10:04:01;19.33;;;15.73;;
17714;SDS011;8977;50.902;4.314;2023-06-22T10:06:28;21.13;;;17.10;;
17714;SDS011;8977;50.902;4.314;2023-06-22T10:08:55;20.95;;;16.30;;
17714;SDS011;8977;50.902;4.314;2023-06-22T10:11:22;18.00;;;16.10;;
17714;SDS011;8977;50.902;4.314;2023-06-22T10:13:54;17.27;;;15.57;;
17714;SDS011;8977;50.902;4.314;2023-06-22T10:16:23;16.50;;;14.82;;
17714;SDS011;8977;50.902;4.314;2023-06-22T10:18:56;17.63;;;15.80;;
17714;SDS011;8977;50.902;4.314;2023-06-22T10:21:23;17.98;;;16.08;;
17714;SDS011;8977;50.902;4.314;2023-06-22T10:23:51;16.92;;;15.13;;
17714;SDS011;8977;50.902;4.314;2023-06-22T10:26:18;15.52;;;13.88;;
17714;SDS011;8977;50.902;4.314;2023-06-22T10:28:45;15.77;;;14.02;;
17714;SDS011;8977;50.902;4.314;2023-06-22T10:31:11;16.80;;;13.95;;
17714;SDS011;8977;50.902;4.314;2023-06-22T10:33:40;16.48;;;14.68;;
17714;SDS011;8977;50.902;4.314;2023-06-22T10:36:09;20.65;;;15.75;;
17714;SDS011;8977;50.902;4.314;2023-06-22T10:38:36;17.23;;;14.82;;
17714;SDS011;8977;50.902;4.314;2023-06-22T10:41:02;17.95;;;15.25;;
17714;SDS011;8977;50.902;4.314;2023-06-22T10:43:31;17.55;;;15.23;;
17714;SDS011;8977;50.902;4.314;2023-06-22T10:45:58;18.50;;;16.27;;
17714;SDS011;8977;50.902;4.314;2023-06-22T10:48:25;18.27;;;16.27;;
17714;SDS011;8977;50.902;4.314;2023-06-22T10:50:53;17.65;;;15.85;;
17714;SDS011;8977;50.902;4.314;2023-06-22T10:53:20;17.08;;;15.43;;
17714;SDS011;8977;50.902;4.314;2023-06-22T10:55:47;15.43;;;13.85;;
17714;SDS011;8977;50.902;4.314;2023-06-22T10:58:14;16.33;;;13.85;;
17714;SDS011;8977;50.902;4.314;2023-06-22T11:00:41;17.63;;;15.75;;
17714;SDS011;8977;50.902;4.314;2023-06-22T11:03:08;17.30;;;15.50;;
17714;SDS011;8977;50.902;4.314;2023-06-22T11:05:35;16.95;;;15.30;;
17714;SDS011;8977;50.902;4.314;2023-06-22T11:08:03;17.88;;;15.55;;
17714;SDS011;8977;50.902;4.314;2023-06-22T11:10:30;16.95;;;15.15;;
17714;SDS011;8977;50.902;4.314;2023-06-22T11:12:57;17.80;;;15.98;;
17714;SDS011;8977;50.902;4.314;2023-06-22T11:15:24;19.45;;;17.08;;
17714;SDS011;8977;50.902;4.314;2023-06-22T11:17:50;18.70;;;16.80;;
17714;SDS011;8977;50.902;4.314;2023-06-22T11:20:17;18.80;;;16.90;;
17714;SDS011;8977;50.902;4.314;2023-06-22T11:22:44;19.58;;;16.63;;
17714;SDS011;8977;50.902;4.314;2023-06-22T11:25:12;19.30;;;17.40;;
17714;SDS011;8977;50.902;4.314;2023-06-22T11:27:39;17.95;;;16.15;;
17714;SDS011;8977;50.902;4.314;2023-06-22T11:30:08;18.90;;;16.95;;
17714;SDS011;8977;50.902;4.314;2023-06-22T11:32:35;16.10;;;14.48;;
17714;SDS011;8977;50.902;4.314;2023-06-22T11:35:02;15.93;;;14.38;;
17714;SDS011;8977;50.902;4.314;2023-06-22T11:37:29;14.85;;;13.45;;
17714;SDS011;8977;50.902;4.314;2023-06-22T11:39:56;14.88;;;13.27;;
17714;SDS011;8977;50.902;4.314;2023-06-22T11:42:24;14.98;;;13.55;;
17714;SDS011;8977;50.902;4.314;2023-06-22T11:44:51;14.27;;;12.88;;
17714;SDS011;8977;50.902;4.314;2023-06-22T11:47:18;15.93;;;14.38;;
17714;SDS011;8977;50.902;4.314;2023-06-22T11:49:45;15.73;;;14.23;;
17714;SDS011;8977;50.902;4.314;2023-06-22T11:52:12;15.05;;;13.65;;
17714;SDS011;8977;50.902;4.314;2023-06-22T11:54:39;15.75;;;14.15;;
17714;SDS011;8977;50.902;4.314;2023-06-22T11:57:06;15.70;;;14.20;;
17714;SDS011;8977;50.902;4.314;2023-06-22T11:59:34;16.15;;;14.55;;
17714;SDS011;8977;50.902;4.314;2023-06-22T12:02:01;18.33;;;15.15;;
17714;SDS011;8977;50.902;4.314;2023-06-22T12:04:29;17.52;;;14.88;;
17714;SDS011;8977;50.902;4.314;2023-06-22T12:06:56;16.08;;;14.63;;
17714;SDS011;8977;50.902;4.314;2023-06-22T12:09:23;17.35;;;15.52;;
17714;SDS011;8977;50.902;4.314;2023-06-22T12:11:50;17.98;;;16.17;;
17714;SDS011;8977;50.902;4.314;2023-06-22T12:14:17;17.25;;;15.45;;
17714;SDS011;8977;50.902;4.314;2023-06-22T12:16:45;19.25;;;15.02;;
17714;SDS011;8977;50.902;4.314;2023-06-22T12:19:12;17.63;;;15.88;;
17714;SDS011;8977;50.902;4.314;2023-06-22T12:21:39;18.98;;;15.57;;
17714;SDS011;8977;50.902;4.314;2023-06-22T12:24:06;17.48;;;15.65;;
17714;SDS011;8977;50.902;4.314;2023-06-22T12:26:33;16.65;;;15.00;;
17714;SDS011;8977;50.902;4.314;2023-06-22T12:29:00;17.02;;;15.23;;
17714;SDS011;8977;50.902;4.314;2023-06-22T12:31:27;18.25;;;16.40;;
17714;SDS011;8977;50.902;4.314;2023-06-22T12:33:55;18.10;;;16.25;;
17714;SDS011;8977;50.902;4.314;2023-06-22T12:36:22;18.00;;;16.20;;
17714;SDS011;8977;50.902;4.314;2023-06-22T12:38:49;18.73;;;16.75;;
17714;SDS011;8977;50.902;4.314;2023-06-22T12:41:16;18.73;;;16.85;;
17714;SDS011;8977;50.902;4.314;2023-06-22T12:43:43;18.95;;;16.90;;
17714;SDS011;8977;50.902;4.314;2023-06-22T12:46:10;20.38;;;18.17;;
17714;SDS011;8977;50.902;4.314;2023-06-22T12:48:37;19.17;;;17.27;;
17714;SDS011;8977;50.902;4.314;2023-06-22T12:51:08;20.17;;;18.13;;
17714;SDS011;8977;50.902;4.314;2023-06-22T12:53:36;20.63;;;18.40;;
17714;SDS011;8977;50.902;4.314;2023-06-22T12:56:03;20.23;;;18.20;;
17714;SDS011;8977;50.902;4.314;2023-06-22T12:58:30;20.17;;;18.15;;
17714;SDS011;8977;50.902;4.314;2023-06-22T13:00:57;23.58;;;19.88;;
17714;SDS011;8977;50.902;4.314;2023-06-22T13:03:23;26.38;;;18.00;;
17714;SDS011;8977;50.902;4.314;2023-06-22T13:05:53;20.88;;;18.40;;
17714;SDS011;8977;50.902;4.314;2023-06-22T13:08:21;22.20;;;18.83;;
17714;SDS011;8977;50.902;4.314;2023-06-22T13:10:48;21.05;;;18.98;;
17714;SDS011;8977;50.902;4.314;2023-06-22T13:13:14;22.35;;;19.80;;
17714;SDS011;8977;50.902;4.314;2023-06-22T13:15:41;20.98;;;18.88;;
17714;SDS011;8977;50.902;4.314;2023-06-22T13:18:08;21.92;;;19.73;;
17714;SDS011;8977;50.902;4.314;2023-06-22T13:20:35;21.33;;;18.90;;
17714;SDS011;8977;50.902;4.314;2023-06-22T13:23:02;20.58;;;18.55;;
17714;SDS011;8977;50.902;4.314;2023-06-22T13:25:30;22.88;;;19.33;;
17714;SDS011;8977;50.902;4.314;2023-06-22T13:27:57;19.92;;;17.80;;
17714;SDS011;8977;50.902;4.314;2023-06-22T13:30:24;20.73;;;18.50;;
17714;SDS011;8977;50.902;4.314;2023-06-22T13:32:50;20.13;;;18.02;;
17714;SDS011;8977;50.902;4.314;2023-06-22T13:35:17;20.25;;;18.10;;
17714;SDS011;8977;50.902;4.314;2023-06-22T13:37:44;18.65;;;16.75;;
17714;SDS011;8977;50.902;4.314;2023-06-22T13:40:11;17.00;;;15.18;;
17714;SDS011;8977;50.902;4.314;2023-06-22T13:42:39;19.30;;;16.90;;
17714;SDS011;8977;50.902;4.314;2023-06-22T13:45:07;17.95;;;16.25;;
17714;SDS011;8977;50.902;4.314;2023-06-22T13:47:34;18.50;;;16.48;;
17714;SDS011;8977;50.902;4.314;2023-06-22T13:50:01;17.95;;;15.90;;
17714;SDS011;8977;50.902;4.314;2023-06-22T13:52:28;18.13;;;16.23;;
17714;SDS011;8977;50.902;4.314;2023-06-22T13:54:55;19.17;;;17.17;;
17714;SDS011;8977;50.902;4.314;2023-06-22T13:57:21;17.35;;;15.75;;
17714;SDS011;8977;50.902;4.314;2023-06-22T13:59:50;17.13;;;15.52;;
17714;SDS011;8977;50.902;4.314;2023-06-22T14:02:16;18.33;;;16.40;;
17714;SDS011;8977;50.902;4.314;2023-06-22T14:04:43;17.85;;;16.15;;
17714;SDS011;8977;50.902;4.314;2023-06-22T14:07:10;18.40;;;16.48;;
17714;SDS011;8977;50.902;4.314;2023-06-22T14:09:37;18.58;;;16.58;;
17714;SDS011;8977;50.902;4.314;2023-06-22T14:12:04;18.67;;;16.70;;
17714;SDS011;8977;50.902;4.314;2023-06-22T14:14:31;17.85;;;16.02;;
17714;SDS011;8977;50.902;4.314;2023-06-22T14:17:00;19.95;;;17.58;;
17714;SDS011;8977;50.902;4.314;2023-06-22T14:19:27;19.65;;;17.65;;
17714;SDS011;8977;50.902;4.314;2023-06-22T14:21:54;19.20;;;17.20;;
17714;SDS011;8977;50.902;4.314;2023-06-22T14:24:21;19.35;;;17.45;;
17714;SDS011;8977;50.902;4.314;2023-06-22T14:26:48;19.17;;;17.38;;
17714;SDS011;8977;50.902;4.314;2023-06-22T14:29:15;19.27;;;17.38;;
17714;SDS011;8977;50.902;4.314;2023-06-22T14:31:44;20.73;;;18.73;;
17714;SDS011;8977;50.902;4.314;2023-06-22T14:34:13;20.27;;;18.23;;
17714;SDS011;8977;50.902;4.314;2023-06-22T14:36:39;22.40;;;19.83;;
17714;SDS011;8977;50.902;4.314;2023-06-22T14:39:07;22.73;;;20.60;;
17714;SDS011;8977;50.902;4.314;2023-06-22T14:41:34;23.35;;;21.02;;
17714;SDS011;8977;50.902;4.314;2023-06-22T14:44:01;25.15;;;22.65;;
17714;SDS011;8977;50.902;4.314;2023-06-22T14:46:27;25.00;;;22.40;;
17714;SDS011;8977;50.902;4.314;2023-06-22T14:48:54;24.27;;;21.83;;